sensor_id;sensor_type;location;lat;lon;timestamp;P1;durP1;ratioP1;P2;durP2;ratioP2
61460;SDS011;47325;50.506;4.472;2023-05-02T00:02:23;8.40;;;5.20;;
61460;SDS011;47325;50.506;4.472;2023-05-02T00:08:09;9.30;;;5.20;;
61460;SDS011;47325;50.506;4.472;2023-05-02T00:13:54;8.20;;;4.90;;
61460;SDS011;47325;50.506;4.472;2023-05-02T00:19:40;8.90;;;5.10;;
61460;SDS011;47325;50.506;4.472;2023-05-02T00:25:25;9.10;;;5.10;;
61460;SDS011;47325;50.506;4.472;2023-05-02T00:31:11;9.30;;;5.50;;
61460;SDS011;47325;50.506;4.472;2023-05-02T00:36:55;8.90;;;4.90;;
61460;SDS011;47325;50.506;4.472;2023-05-02T00:42:40;8.40;;;4.90;;
61460;SDS011;47325;50.506;4.472;2023-05-02T00:48:25;8.70;;;5.10;;
61460;SDS011;47325;50.506;4.472;2023-05-02T00:54:10;8.30;;;5.00;;
61460;SDS011;47325;50.506;4.472;2023-05-02T00:59:54;10.20;;;5.20;;
61460;SDS011;47325;50.506;4.472;2023-05-02T01:05:42;8.40;;;5.10;;
61460;SDS011;47325;50.506;4.472;2023-05-02T01:11:31;8.90;;;5.00;;
61460;SDS011;47325;50.506;4.472;2023-05-02T01:17:18;8.20;;;4.80;;
61460;SDS011;47325;50.506;4.472;2023-05-02T01:23:05;7.70;;;4.90;;
61460;SDS011;47325;50.506;4.472;2023-05-02T01:29:02;7.70;;;4.50;;
61460;SDS011;47325;50.506;4.472;2023-05-02T01:34:47;7.80;;;4.10;;
61460;SDS011;47325;50.506;4.472;2023-05-02T01:40:34;7.10;;;4.70;;
61460;SDS011;47325;50.506;4.472;2023-05-02T01:46:20;6.80;;;4.50;;
61460;SDS011;47325;50.506;4.472;2023-05-02T01:52:07;7.90;;;4.50;;
61460;SDS011;47325;50.506;4.472;2023-05-02T01:57:54;8.50;;;4.70;;
61460;SDS011;47325;50.506;4.472;2023-05-02T02:03:39;7.70;;;4.70;;
61460;SDS011;47325;50.506;4.472;2023-05-02T02:09:26;7.40;;;4.30;;
61460;SDS011;47325;50.506;4.472;2023-05-02T02:15:12;7.30;;;4.80;;
61460;SDS011;47325;50.506;4.472;2023-05-02T02:21:00;7.90;;;4.60;;
61460;SDS011;47325;50.506;4.472;2023-05-02T02:26:46;7.70;;;4.70;;
61460;SDS011;47325;50.506;4.472;2023-05-02T02:32:30;8.00;;;4.70;;
61460;SDS011;47325;50.506;4.472;2023-05-02T02:38:18;7.90;;;4.80;;
61460;SDS011;47325;50.506;4.472;2023-05-02T02:44:08;10.50;;;5.30;;
61460;SDS011;47325;50.506;4.472;2023-05-02T02:49:59;8.10;;;4.90;;
61460;SDS011;47325;50.506;4.472;2023-05-02T02:55:47;9.20;;;5.80;;
61460;SDS011;47325;50.506;4.472;2023-05-02T03:01:35;10.00;;;5.80;;
61460;SDS011;47325;50.506;4.472;2023-05-02T03:07:23;10.50;;;5.60;;
61460;SDS011;47325;50.506;4.472;2023-05-02T03:13:10;9.70;;;5.70;;
61460;SDS011;47325;50.506;4.472;2023-05-02T03:18:55;10.80;;;5.90;;
61460;SDS011;47325;50.506;4.472;2023-05-02T03:24:40;10.30;;;5.70;;
61460;SDS011;47325;50.506;4.472;2023-05-02T03:30:25;9.00;;;5.70;;
61460;SDS011;47325;50.506;4.472;2023-05-02T03:36:09;10.30;;;6.00;;
61460;SDS011;47325;50.506;4.472;2023-05-02T03:41:54;10.30;;;6.20;;
61460;SDS011;47325;50.506;4.472;2023-05-02T03:47:39;11.50;;;6.60;;
61460;SDS011;47325;50.506;4.472;2023-05-02T03:53:24;11.90;;;6.80;;
61460;SDS011;47325;50.506;4.472;2023-05-02T03:59:08;14.40;;;7.40;;
61460;SDS011;47325;50.506;4.472;2023-05-02T04:04:53;14.20;;;8.00;;
61460;SDS011;47325;50.506;4.472;2023-05-02T04:10:38;14.30;;;8.10;;
61460;SDS011;47325;50.506;4.472;2023-05-02T04:16:22;13.90;;;8.20;;
61460;SDS011;47325;50.506;4.472;2023-05-02T04:22:07;14.20;;;8.20;;
61460;SDS011;47325;50.506;4.472;2023-05-02T04:27:52;15.30;;;8.20;;
61460;SDS011;47325;50.506;4.472;2023-05-02T04:33:37;15.50;;;8.20;;
61460;SDS011;47325;50.506;4.472;2023-05-02T04:39:23;16.40;;;8.80;;
61460;SDS011;47325;50.506;4.472;2023-05-02T04:45:08;15.10;;;8.80;;
61460;SDS011;47325;50.506;4.472;2023-05-02T04:50:53;14.70;;;9.10;;
61460;SDS011;47325;50.506;4.472;2023-05-02T04:56:38;16.20;;;9.10;;
61460;SDS011;47325;50.506;4.472;2023-05-02T05:02:22;14.80;;;9.30;;
61460;SDS011;47325;50.506;4.472;2023-05-02T05:08:08;16.40;;;9.60;;
61460;SDS011;47325;50.506;4.472;2023-05-02T05:13:52;15.40;;;9.10;;
61460;SDS011;47325;50.506;4.472;2023-05-02T05:19:37;15.40;;;9.00;;
61460;SDS011;47325;50.506;4.472;2023-05-02T05:25:22;14.80;;;8.40;;
61460;SDS011;47325;50.506;4.472;2023-05-02T05:31:10;14.50;;;8.60;;
61460;SDS011;47325;50.506;4.472;2023-05-02T05:36:59;13.30;;;8.50;;
61460;SDS011;47325;50.506;4.472;2023-05-02T05:42:43;13.90;;;8.20;;
61460;SDS011;47325;50.506;4.472;2023-05-02T05:48:28;13.00;;;8.20;;
61460;SDS011;47325;50.506;4.472;2023-05-02T05:54:14;12.90;;;7.70;;
61460;SDS011;47325;50.506;4.472;2023-05-02T06:00:00;14.30;;;8.20;;
61460;SDS011;47325;50.506;4.472;2023-05-02T06:05:45;14.20;;;8.00;;
61460;SDS011;47325;50.506;4.472;2023-05-02T06:11:30;13.80;;;7.70;;
61460;SDS011;47325;50.506;4.472;2023-05-02T06:17:15;13.70;;;8.10;;
61460;SDS011;47325;50.506;4.472;2023-05-02T06:23:01;12.80;;;8.00;;
61460;SDS011;47325;50.506;4.472;2023-05-02T06:28:45;14.60;;;8.10;;
61460;SDS011;47325;50.506;4.472;2023-05-02T06:34:30;13.80;;;8.40;;
61460;SDS011;47325;50.506;4.472;2023-05-02T06:40:15;14.20;;;8.10;;
61460;SDS011;47325;50.506;4.472;2023-05-02T06:46:03;13.30;;;8.20;;
61460;SDS011;47325;50.506;4.472;2023-05-02T06:51:47;12.70;;;8.50;;
61460;SDS011;47325;50.506;4.472;2023-05-02T06:57:32;14.60;;;9.10;;
61460;SDS011;47325;50.506;4.472;2023-05-02T07:03:18;14.50;;;8.50;;
61460;SDS011;47325;50.506;4.472;2023-05-02T07:09:03;14.70;;;8.60;;
61460;SDS011;47325;50.506;4.472;2023-05-02T07:14:47;16.20;;;8.50;;
61460;SDS011;47325;50.506;4.472;2023-05-02T07:20:32;13.80;;;8.30;;
61460;SDS011;47325;50.506;4.472;2023-05-02T07:26:17;15.30;;;8.90;;
61460;SDS011;47325;50.506;4.472;2023-05-02T07:32:02;15.30;;;9.20;;
61460;SDS011;47325;50.506;4.472;2023-05-02T07:37:47;13.90;;;8.40;;
61460;SDS011;47325;50.506;4.472;2023-05-02T07:43:32;13.10;;;8.20;;
61460;SDS011;47325;50.506;4.472;2023-05-02T07:49:17;13.30;;;8.60;;
61460;SDS011;47325;50.506;4.472;2023-05-02T07:55:02;14.40;;;8.20;;
61460;SDS011;47325;50.506;4.472;2023-05-02T08:00:47;11.40;;;7.60;;
61460;SDS011;47325;50.506;4.472;2023-05-02T08:06:32;11.10;;;7.10;;
61460;SDS011;47325;50.506;4.472;2023-05-02T08:12:17;11.90;;;7.30;;
61460;SDS011;47325;50.506;4.472;2023-05-02T08:18:03;10.80;;;6.90;;
61460;SDS011;47325;50.506;4.472;2023-05-02T08:23:48;10.70;;;6.80;;
61460;SDS011;47325;50.506;4.472;2023-05-02T08:29:33;9.40;;;6.40;;
61460;SDS011;47325;50.506;4.472;2023-05-02T08:35:18;10.00;;;6.50;;
61460;SDS011;47325;50.506;4.472;2023-05-02T08:41:02;9.30;;;6.30;;
61460;SDS011;47325;50.506;4.472;2023-05-02T08:46:58;8.90;;;6.30;;
61460;SDS011;47325;50.506;4.472;2023-05-02T08:52:44;8.80;;;6.10;;
61460;SDS011;47325;50.506;4.472;2023-05-02T08:58:29;8.20;;;6.10;;
61460;SDS011;47325;50.506;4.472;2023-05-02T09:04:14;9.70;;;6.70;;
61460;SDS011;47325;50.506;4.472;2023-05-02T09:09:59;10.90;;;6.40;;
61460;SDS011;47325;50.506;4.472;2023-05-02T09:15:44;9.10;;;6.40;;
61460;SDS011;47325;50.506;4.472;2023-05-02T09:21:38;8.90;;;6.60;;
61460;SDS011;47325;50.506;4.472;2023-05-02T09:27:23;8.70;;;6.40;;
61460;SDS011;47325;50.506;4.472;2023-05-02T09:33:08;8.20;;;6.20;;
61460;SDS011;47325;50.506;4.472;2023-05-02T09:38:53;8.10;;;6.30;;
61460;SDS011;47325;50.506;4.472;2023-05-02T09:44:42;8.30;;;6.20;;
61460;SDS011;47325;50.506;4.472;2023-05-02T09:50:37;7.40;;;6.30;;
61460;SDS011;47325;50.506;4.472;2023-05-02T09:56:21;8.30;;;6.20;;
61460;SDS011;47325;50.506;4.472;2023-05-02T10:02:08;7.00;;;6.00;;
61460;SDS011;47325;50.506;4.472;2023-05-02T10:07:53;7.80;;;5.90;;
61460;SDS011;47325;50.506;4.472;2023-05-02T10:13:38;7.60;;;5.80;;
61460;SDS011;47325;50.506;4.472;2023-05-02T10:19:26;7.20;;;5.40;;
61460;SDS011;47325;50.506;4.472;2023-05-02T10:25:13;7.70;;;5.70;;
61460;SDS011;47325;50.506;4.472;2023-05-02T10:30:58;6.90;;;5.50;;
61460;SDS011;47325;50.506;4.472;2023-05-02T10:36:43;8.50;;;6.00;;
61460;SDS011;47325;50.506;4.472;2023-05-02T10:42:29;8.30;;;5.20;;
61460;SDS011;47325;50.506;4.472;2023-05-02T10:48:20;7.10;;;5.50;;
61460;SDS011;47325;50.506;4.472;2023-05-02T10:54:21;7.80;;;5.70;;
61460;SDS011;47325;50.506;4.472;2023-05-02T11:06:07;6.40;;;5.30;;
61460;SDS011;47325;50.506;4.472;2023-05-02T11:11:53;6.80;;;5.30;;
61460;SDS011;47325;50.506;4.472;2023-05-02T11:23:36;8.20;;;5.00;;
61460;SDS011;47325;50.506;4.472;2023-05-02T11:35:17;8.00;;;5.10;;
61460;SDS011;47325;50.506;4.472;2023-05-02T11:41:02;7.90;;;5.20;;
61460;SDS011;47325;50.506;4.472;2023-05-02T11:46:47;8.10;;;5.00;;
61460;SDS011;47325;50.506;4.472;2023-05-02T11:52:33;6.50;;;4.80;;
61460;SDS011;47325;50.506;4.472;2023-05-02T11:58:20;6.90;;;4.60;;
61460;SDS011;47325;50.506;4.472;2023-05-02T12:04:06;5.40;;;4.40;;
61460;SDS011;47325;50.506;4.472;2023-05-02T12:09:54;5.20;;;4.30;;
61460;SDS011;47325;50.506;4.472;2023-05-02T12:15:39;5.90;;;4.50;;
61460;SDS011;47325;50.506;4.472;2023-05-02T12:21:24;6.20;;;4.40;;
61460;SDS011;47325;50.506;4.472;2023-05-02T12:27:12;5.40;;;4.30;;
61460;SDS011;47325;50.506;4.472;2023-05-02T12:32:59;5.00;;;4.30;;
61460;SDS011;47325;50.506;4.472;2023-05-02T12:38:50;6.60;;;4.50;;
61460;SDS011;47325;50.506;4.472;2023-05-02T12:44:40;6.30;;;4.60;;
61460;SDS011;47325;50.506;4.472;2023-05-02T12:56:21;7.00;;;4.70;;
61460;SDS011;47325;50.506;4.472;2023-05-02T13:02:06;5.50;;;4.70;;
61460;SDS011;47325;50.506;4.472;2023-05-02T13:07:51;6.20;;;4.50;;
61460;SDS011;47325;50.506;4.472;2023-05-02T13:13:35;7.60;;;4.50;;
61460;SDS011;47325;50.506;4.472;2023-05-02T13:19:20;7.30;;;5.10;;
61460;SDS011;47325;50.506;4.472;2023-05-02T13:25:06;8.10;;;5.30;;
61460;SDS011;47325;50.506;4.472;2023-05-02T13:30:52;5.60;;;5.00;;
61460;SDS011;47325;50.506;4.472;2023-05-02T13:36:37;7.30;;;5.00;;
61460;SDS011;47325;50.506;4.472;2023-05-02T13:42:22;4.90;;;4.40;;
61460;SDS011;47325;50.506;4.472;2023-05-02T13:48:07;6.40;;;4.30;;
61460;SDS011;47325;50.506;4.472;2023-05-02T13:53:52;5.90;;;4.50;;
61460;SDS011;47325;50.506;4.472;2023-05-02T13:59:38;4.80;;;4.10;;
61460;SDS011;47325;50.506;4.472;2023-05-02T14:05:23;6.20;;;4.10;;
61460;SDS011;47325;50.506;4.472;2023-05-02T14:11:08;6.50;;;4.40;;
61460;SDS011;47325;50.506;4.472;2023-05-02T14:16:53;5.30;;;3.80;;
61460;SDS011;47325;50.506;4.472;2023-05-02T14:22:37;4.70;;;3.70;;
61460;SDS011;47325;50.506;4.472;2023-05-02T14:28:22;5.20;;;3.60;;
61460;SDS011;47325;50.506;4.472;2023-05-02T14:34:06;3.80;;;3.20;;
61460;SDS011;47325;50.506;4.472;2023-05-02T14:39:52;5.10;;;3.40;;
61460;SDS011;47325;50.506;4.472;2023-05-02T14:45:38;3.90;;;3.30;;
61460;SDS011;47325;50.506;4.472;2023-05-02T14:51:23;3.80;;;3.00;;
61460;SDS011;47325;50.506;4.472;2023-05-02T14:57:08;4.40;;;3.10;;
61460;SDS011;47325;50.506;4.472;2023-05-02T15:02:53;4.50;;;3.10;;
61460;SDS011;47325;50.506;4.472;2023-05-02T15:08:38;4.10;;;3.10;;
61460;SDS011;47325;50.506;4.472;2023-05-02T15:14:24;4.10;;;2.90;;
61460;SDS011;47325;50.506;4.472;2023-05-02T15:20:10;3.30;;;2.60;;
61460;SDS011;47325;50.506;4.472;2023-05-02T15:25:55;3.30;;;2.40;;
61460;SDS011;47325;50.506;4.472;2023-05-02T15:31:39;5.10;;;2.40;;
61460;SDS011;47325;50.506;4.472;2023-05-02T15:37:24;4.10;;;2.50;;
61460;SDS011;47325;50.506;4.472;2023-05-02T15:43:09;3.00;;;1.90;;
61460;SDS011;47325;50.506;4.472;2023-05-02T15:48:54;3.10;;;2.00;;
61460;SDS011;47325;50.506;4.472;2023-05-02T15:54:38;3.50;;;1.70;;
61460;SDS011;47325;50.506;4.472;2023-05-02T16:00:23;3.10;;;1.70;;
61460;SDS011;47325;50.506;4.472;2023-05-02T16:06:08;2.70;;;1.30;;
61460;SDS011;47325;50.506;4.472;2023-05-02T16:11:53;3.80;;;1.60;;
61460;SDS011;47325;50.506;4.472;2023-05-02T16:17:37;3.30;;;1.40;;
61460;SDS011;47325;50.506;4.472;2023-05-02T16:23:22;2.70;;;1.30;;
61460;SDS011;47325;50.506;4.472;2023-05-02T16:29:07;4.10;;;1.60;;
61460;SDS011;47325;50.506;4.472;2023-05-02T16:34:52;5.10;;;1.80;;
61460;SDS011;47325;50.506;4.472;2023-05-02T16:40:37;2.50;;;1.40;;
61460;SDS011;47325;50.506;4.472;2023-05-02T16:46:21;3.50;;;1.30;;
61460;SDS011;47325;50.506;4.472;2023-05-02T16:52:06;3.40;;;1.20;;
61460;SDS011;47325;50.506;4.472;2023-05-02T16:57:51;3.70;;;1.30;;
61460;SDS011;47325;50.506;4.472;2023-05-02T17:03:36;3.30;;;1.20;;
61460;SDS011;47325;50.506;4.472;2023-05-02T17:09:21;4.90;;;1.60;;
61460;SDS011;47325;50.506;4.472;2023-05-02T17:15:06;2.10;;;1.20;;
61460;SDS011;47325;50.506;4.472;2023-05-02T17:20:51;6.00;;;1.70;;
61460;SDS011;47325;50.506;4.472;2023-05-02T17:26:35;4.70;;;2.00;;
61460;SDS011;47325;50.506;4.472;2023-05-02T17:32:20;6.00;;;3.30;;
61460;SDS011;47325;50.506;4.472;2023-05-02T17:38:05;19.00;;;11.60;;
61460;SDS011;47325;50.506;4.472;2023-05-02T17:43:50;14.80;;;8.40;;
61460;SDS011;47325;50.506;4.472;2023-05-02T17:49:35;16.60;;;9.50;;
61460;SDS011;47325;50.506;4.472;2023-05-02T17:55:20;16.70;;;8.90;;
61460;SDS011;47325;50.506;4.472;2023-05-02T18:01:09;14.00;;;8.30;;
61460;SDS011;47325;50.506;4.472;2023-05-02T18:06:55;14.70;;;8.80;;
61460;SDS011;47325;50.506;4.472;2023-05-02T18:12:39;20.00;;;11.20;;
61460;SDS011;47325;50.506;4.472;2023-05-02T18:18:24;58.80;;;44.20;;
61460;SDS011;47325;50.506;4.472;2023-05-02T18:24:09;72.00;;;52.70;;
61460;SDS011;47325;50.506;4.472;2023-05-02T18:29:54;69.80;;;50.30;;
61460;SDS011;47325;50.506;4.472;2023-05-02T18:35:40;67.80;;;47.50;;
61460;SDS011;47325;50.506;4.472;2023-05-02T18:41:27;63.70;;;45.20;;
61460;SDS011;47325;50.506;4.472;2023-05-02T18:47:12;63.10;;;44.50;;
61460;SDS011;47325;50.506;4.472;2023-05-02T18:52:57;52.70;;;36.20;;
61460;SDS011;47325;50.506;4.472;2023-05-02T18:58:42;51.90;;;35.30;;
61460;SDS011;47325;50.506;4.472;2023-05-02T19:04:27;49.50;;;33.50;;
61460;SDS011;47325;50.506;4.472;2023-05-02T19:10:13;42.30;;;28.50;;
61460;SDS011;47325;50.506;4.472;2023-05-02T19:15:58;43.60;;;28.50;;
61460;SDS011;47325;50.506;4.472;2023-05-02T19:21:43;39.80;;;26.70;;
61460;SDS011;47325;50.506;4.472;2023-05-02T19:27:28;35.80;;;24.80;;
61460;SDS011;47325;50.506;4.472;2023-05-02T19:33:12;34.30;;;24.20;;
61460;SDS011;47325;50.506;4.472;2023-05-02T19:38:57;38.50;;;23.40;;
61460;SDS011;47325;50.506;4.472;2023-05-02T19:44:42;31.30;;;21.90;;
61460;SDS011;47325;50.506;4.472;2023-05-02T19:50:28;29.50;;;19.90;;
61460;SDS011;47325;50.506;4.472;2023-05-02T19:56:12;27.20;;;18.80;;
61460;SDS011;47325;50.506;4.472;2023-05-02T20:01:57;25.90;;;17.70;;
61460;SDS011;47325;50.506;4.472;2023-05-02T20:07:42;23.80;;;16.90;;
61460;SDS011;47325;50.506;4.472;2023-05-02T20:13:26;24.00;;;15.50;;
61460;SDS011;47325;50.506;4.472;2023-05-02T20:19:11;23.40;;;15.10;;
61460;SDS011;47325;50.506;4.472;2023-05-02T20:24:58;22.30;;;14.70;;
61460;SDS011;47325;50.506;4.472;2023-05-02T20:30:43;23.50;;;13.50;;
61460;SDS011;47325;50.506;4.472;2023-05-02T20:36:27;21.60;;;12.80;;
61460;SDS011;47325;50.506;4.472;2023-05-02T20:42:12;21.40;;;12.70;;
61460;SDS011;47325;50.506;4.472;2023-05-02T20:47:57;21.50;;;11.90;;
61460;SDS011;47325;50.506;4.472;2023-05-02T20:53:42;17.90;;;10.60;;
61460;SDS011;47325;50.506;4.472;2023-05-02T20:59:27;16.00;;;9.90;;
61460;SDS011;47325;50.506;4.472;2023-05-02T21:05:12;16.40;;;9.50;;
61460;SDS011;47325;50.506;4.472;2023-05-02T21:10:56;14.10;;;8.80;;
61460;SDS011;47325;50.506;4.472;2023-05-02T21:16:41;15.60;;;9.20;;
61460;SDS011;47325;50.506;4.472;2023-05-02T21:22:26;12.10;;;8.00;;
61460;SDS011;47325;50.506;4.472;2023-05-02T21:28:11;13.40;;;8.20;;
61460;SDS011;47325;50.506;4.472;2023-05-02T21:33:56;12.60;;;7.70;;
61460;SDS011;47325;50.506;4.472;2023-05-02T21:39:41;12.50;;;7.10;;
61460;SDS011;47325;50.506;4.472;2023-05-02T21:45:26;11.80;;;7.00;;
61460;SDS011;47325;50.506;4.472;2023-05-02T21:51:10;11.30;;;7.00;;
61460;SDS011;47325;50.506;4.472;2023-05-02T21:56:55;10.50;;;6.60;;
61460;SDS011;47325;50.506;4.472;2023-05-02T22:02:40;10.40;;;6.60;;
61460;SDS011;47325;50.506;4.472;2023-05-02T22:08:25;10.70;;;5.70;;
61460;SDS011;47325;50.506;4.472;2023-05-02T22:14:10;9.80;;;6.00;;
61460;SDS011;47325;50.506;4.472;2023-05-02T22:19:54;12.20;;;5.60;;
61460;SDS011;47325;50.506;4.472;2023-05-02T22:25:40;11.10;;;5.40;;
61460;SDS011;47325;50.506;4.472;2023-05-02T22:31:26;8.00;;;5.30;;
61460;SDS011;47325;50.506;4.472;2023-05-02T22:37:11;6.80;;;4.90;;
61460;SDS011;47325;50.506;4.472;2023-05-02T22:42:55;8.50;;;5.00;;
61460;SDS011;47325;50.506;4.472;2023-05-02T22:48:40;7.40;;;4.70;;
61460;SDS011;47325;50.506;4.472;2023-05-02T22:54:25;8.60;;;4.50;;
61460;SDS011;47325;50.506;4.472;2023-05-02T23:00:11;7.90;;;5.00;;
61460;SDS011;47325;50.506;4.472;2023-05-02T23:05:56;7.20;;;4.10;;
61460;SDS011;47325;50.506;4.472;2023-05-02T23:11:41;7.40;;;4.30;;
61460;SDS011;47325;50.506;4.472;2023-05-02T23:17:26;6.70;;;4.10;;
61460;SDS011;47325;50.506;4.472;2023-05-02T23:23:11;7.30;;;4.30;;
61460;SDS011;47325;50.506;4.472;2023-05-02T23:28:56;7.00;;;3.70;;
61460;SDS011;47325;50.506;4.472;2023-05-02T23:34:40;6.40;;;3.80;;
61460;SDS011;47325;50.506;4.472;2023-05-02T23:40:25;6.30;;;3.70;;
61460;SDS011;47325;50.506;4.472;2023-05-02T23:46:10;6.50;;;3.70;;
61460;SDS011;47325;50.506;4.472;2023-05-02T23:51:55;7.30;;;3.70;;
61460;SDS011;47325;50.506;4.472;2023-05-02T23:57:40;5.40;;;3.30;;
